sensor_id;sensor_type;location;lat;lon;timestamp;P1;durP1;ratioP1;P2;durP2;ratioP2
1258;SDS011;619;51.472;6.628;2022-10-31T00:00:57;18.03;;;13.10;;
1258;SDS011;619;51.472;6.628;2022-10-31T00:03:25;16.57;;;12.57;;
1258;SDS011;619;51.472;6.628;2022-10-31T00:05:51;17.67;;;12.10;;
1258;SDS011;619;51.472;6.628;2022-10-31T00:08:22;13.40;;;11.17;;
1258;SDS011;619;51.472;6.628;2022-10-31T00:10:50;13.80;;;10.80;;
1258;SDS011;619;51.472;6.628;2022-10-31T00:13:15;15.40;;;12.67;;
1258;SDS011;619;51.472;6.628;2022-10-31T00:15:41;13.60;;;12.13;;
1258;SDS011;619;51.472;6.628;2022-10-31T00:18:07;15.13;;;11.80;;
1258;SDS011;619;51.472;6.628;2022-10-31T00:20:35;19.00;;;10.90;;
1258;SDS011;619;51.472;6.628;2022-10-31T00:23:02;16.47;;;12.07;;
1258;SDS011;619;51.472;6.628;2022-10-31T00:25:29;14.57;;;11.63;;
1258;SDS011;619;51.472;6.628;2022-10-31T00:27:58;13.10;;;11.17;;
1258;SDS011;619;51.472;6.628;2022-10-31T00:30:26;12.40;;;11.20;;
1258;SDS011;619;51.472;6.628;2022-10-31T00:32:51;12.70;;;10.47;;
1258;SDS011;619;51.472;6.628;2022-10-31T00:35:17;15.20;;;11.23;;
1258;SDS011;619;51.472;6.628;2022-10-31T00:37:42;18.00;;;12.60;;
1258;SDS011;619;51.472;6.628;2022-10-31T00:40:08;14.57;;;11.27;;
1258;SDS011;619;51.472;6.628;2022-10-31T00:42:34;15.33;;;12.70;;
1258;SDS011;619;51.472;6.628;2022-10-31T00:45:02;13.43;;;11.60;;
1258;SDS011;619;51.472;6.628;2022-10-31T00:47:28;14.53;;;12.10;;
1258;SDS011;619;51.472;6.628;2022-10-31T00:49:56;16.90;;;11.60;;
1258;SDS011;619;51.472;6.628;2022-10-31T00:52:21;14.57;;;11.13;;
1258;SDS011;619;51.472;6.628;2022-10-31T00:54:47;13.07;;;11.13;;
1258;SDS011;619;51.472;6.628;2022-10-31T00:57:12;12.37;;;11.03;;
1258;SDS011;619;51.472;6.628;2022-10-31T00:59:38;15.03;;;10.83;;
1258;SDS011;619;51.472;6.628;2022-10-31T01:02:06;13.87;;;12.37;;
1258;SDS011;619;51.472;6.628;2022-10-31T01:04:32;16.77;;;12.60;;
1258;SDS011;619;51.472;6.628;2022-10-31T01:06:57;16.77;;;11.07;;
1258;SDS011;619;51.472;6.628;2022-10-31T01:09:25;16.60;;;10.67;;
1258;SDS011;619;51.472;6.628;2022-10-31T01:11:55;13.73;;;11.53;;
1258;SDS011;619;51.472;6.628;2022-10-31T01:14:23;12.90;;;10.97;;
1258;SDS011;619;51.472;6.628;2022-10-31T01:16:50;14.97;;;11.30;;
1258;SDS011;619;51.472;6.628;2022-10-31T01:19:16;14.43;;;12.20;;
1258;SDS011;619;51.472;6.628;2022-10-31T01:21:42;15.47;;;11.27;;
1258;SDS011;619;51.472;6.628;2022-10-31T01:24:07;13.87;;;11.77;;
1258;SDS011;619;51.472;6.628;2022-10-31T01:26:35;15.53;;;12.03;;
1258;SDS011;619;51.472;6.628;2022-10-31T01:29:03;14.63;;;11.40;;
1258;SDS011;619;51.472;6.628;2022-10-31T01:31:32;14.07;;;11.13;;
1258;SDS011;619;51.472;6.628;2022-10-31T01:34:00;17.43;;;11.67;;
1258;SDS011;619;51.472;6.628;2022-10-31T01:36:30;15.13;;;10.90;;
1258;SDS011;619;51.472;6.628;2022-10-31T01:39:12;14.50;;;10.73;;
1258;SDS011;619;51.472;6.628;2022-10-31T01:41:41;13.87;;;11.63;;
1258;SDS011;619;51.472;6.628;2022-10-31T01:46:44;18.13;;;12.37;;
1258;SDS011;619;51.472;6.628;2022-10-31T01:52:09;15.03;;;10.90;;
1258;SDS011;619;51.472;6.628;2022-10-31T01:54:58;12.33;;;10.17;;
1258;SDS011;619;51.472;6.628;2022-10-31T01:57:33;14.33;;;11.10;;
1258;SDS011;619;51.472;6.628;2022-10-31T02:00:06;11.60;;;10.40;;
1258;SDS011;619;51.472;6.628;2022-10-31T02:02:33;11.53;;;9.93;;
1258;SDS011;619;51.472;6.628;2022-10-31T02:05:05;11.53;;;10.43;;
1258;SDS011;619;51.472;6.628;2022-10-31T02:07:38;13.00;;;10.67;;
1258;SDS011;619;51.472;6.628;2022-10-31T02:10:10;11.07;;;9.93;;
1258;SDS011;619;51.472;6.628;2022-10-31T02:12:38;10.30;;;9.30;;
1258;SDS011;619;51.472;6.628;2022-10-31T02:15:05;12.67;;;11.03;;
1258;SDS011;619;51.472;6.628;2022-10-31T02:17:36;13.67;;;10.10;;
1258;SDS011;619;51.472;6.628;2022-10-31T02:22:40;13.93;;;9.40;;
1258;SDS011;619;51.472;6.628;2022-10-31T02:25:34;14.70;;;10.33;;
1258;SDS011;619;51.472;6.628;2022-10-31T02:28:22;11.10;;;9.80;;
1258;SDS011;619;51.472;6.628;2022-10-31T02:33:33;11.90;;;9.83;;
1258;SDS011;619;51.472;6.628;2022-10-31T02:41:43;12.67;;;9.90;;
1258;SDS011;619;51.472;6.628;2022-10-31T02:47:07;17.43;;;10.90;;
1258;SDS011;619;51.472;6.628;2022-10-31T02:49:43;13.20;;;10.73;;
1258;SDS011;619;51.472;6.628;2022-10-31T02:52:18;13.70;;;10.87;;
1258;SDS011;619;51.472;6.628;2022-10-31T02:54:49;12.70;;;10.53;;
1258;SDS011;619;51.472;6.628;2022-10-31T02:57:18;12.80;;;11.33;;
1258;SDS011;619;51.472;6.628;2022-10-31T02:59:56;11.30;;;9.97;;
1258;SDS011;619;51.472;6.628;2022-10-31T03:02:32;13.07;;;9.30;;
1258;SDS011;619;51.472;6.628;2022-10-31T03:11:05;16.23;;;10.40;;
1258;SDS011;619;51.472;6.628;2022-10-31T03:19:10;15.37;;;9.97;;
1258;SDS011;619;51.472;6.628;2022-10-31T03:21:51;12.60;;;10.37;;
1258;SDS011;619;51.472;6.628;2022-10-31T03:24:33;10.50;;;9.40;;
1258;SDS011;619;51.472;6.628;2022-10-31T03:27:06;12.37;;;10.93;;
1258;SDS011;619;51.472;6.628;2022-10-31T03:29:36;11.07;;;9.90;;
1258;SDS011;619;51.472;6.628;2022-10-31T03:32:05;12.17;;;10.23;;
1258;SDS011;619;51.472;6.628;2022-10-31T03:34:35;13.67;;;10.47;;
1258;SDS011;619;51.472;6.628;2022-10-31T03:37:06;12.90;;;11.57;;
1258;SDS011;619;51.472;6.628;2022-10-31T03:39:34;12.80;;;11.43;;
1258;SDS011;619;51.472;6.628;2022-10-31T03:42:06;11.70;;;9.43;;
1258;SDS011;619;51.472;6.628;2022-10-31T03:44:37;11.63;;;10.37;;
1258;SDS011;619;51.472;6.628;2022-10-31T03:47:08;13.50;;;10.73;;
1258;SDS011;619;51.472;6.628;2022-10-31T03:49:33;12.00;;;10.00;;
1258;SDS011;619;51.472;6.628;2022-10-31T03:54:58;12.33;;;10.03;;
1258;SDS011;619;51.472;6.628;2022-10-31T04:00:04;14.33;;;11.30;;
1258;SDS011;619;51.472;6.628;2022-10-31T04:02:36;11.73;;;9.83;;
1258;SDS011;619;51.472;6.628;2022-10-31T04:05:06;14.80;;;10.40;;
1258;SDS011;619;51.472;6.628;2022-10-31T04:07:36;10.73;;;9.60;;
1258;SDS011;619;51.472;6.628;2022-10-31T04:10:09;13.57;;;10.60;;
1258;SDS011;619;51.472;6.628;2022-10-31T04:12:37;13.70;;;10.60;;
1258;SDS011;619;51.472;6.628;2022-10-31T04:15:06;12.43;;;10.33;;
1258;SDS011;619;51.472;6.628;2022-10-31T04:17:36;12.00;;;10.80;;
1258;SDS011;619;51.472;6.628;2022-10-31T04:20:08;13.03;;;10.90;;
1258;SDS011;619;51.472;6.628;2022-10-31T04:22:36;12.23;;;10.87;;
1258;SDS011;619;51.472;6.628;2022-10-31T04:25:02;15.07;;;12.53;;
1258;SDS011;619;51.472;6.628;2022-10-31T04:27:30;12.90;;;10.67;;
1258;SDS011;619;51.472;6.628;2022-10-31T04:29:55;13.53;;;10.80;;
1258;SDS011;619;51.472;6.628;2022-10-31T04:32:24;11.73;;;10.50;;
1258;SDS011;619;51.472;6.628;2022-10-31T04:34:52;12.23;;;10.93;;
1258;SDS011;619;51.472;6.628;2022-10-31T04:37:17;13.43;;;10.73;;
1258;SDS011;619;51.472;6.628;2022-10-31T04:39:43;11.50;;;9.90;;
1258;SDS011;619;51.472;6.628;2022-10-31T04:42:11;14.77;;;11.93;;
1258;SDS011;619;51.472;6.628;2022-10-31T04:44:36;13.30;;;10.63;;
1258;SDS011;619;51.472;6.628;2022-10-31T04:47:04;12.00;;;9.80;;
1258;SDS011;619;51.472;6.628;2022-10-31T04:49:30;15.70;;;11.90;;
1258;SDS011;619;51.472;6.628;2022-10-31T04:51:55;14.00;;;11.70;;
1258;SDS011;619;51.472;6.628;2022-10-31T04:54:21;16.60;;;10.70;;
1258;SDS011;619;51.472;6.628;2022-10-31T04:56:46;14.83;;;10.80;;
1258;SDS011;619;51.472;6.628;2022-10-31T04:59:12;12.47;;;11.20;;
1258;SDS011;619;51.472;6.628;2022-10-31T05:01:37;12.80;;;10.90;;
1258;SDS011;619;51.472;6.628;2022-10-31T05:04:03;13.53;;;11.00;;
1258;SDS011;619;51.472;6.628;2022-10-31T05:06:29;13.20;;;10.63;;
1258;SDS011;619;51.472;6.628;2022-10-31T05:08:54;12.27;;;11.03;;
1258;SDS011;619;51.472;6.628;2022-10-31T05:11:20;12.20;;;11.00;;
1258;SDS011;619;51.472;6.628;2022-10-31T05:13:45;14.20;;;9.63;;
1258;SDS011;619;51.472;6.628;2022-10-31T05:16:13;12.70;;;11.03;;
1258;SDS011;619;51.472;6.628;2022-10-31T05:18:39;12.13;;;10.40;;
1258;SDS011;619;51.472;6.628;2022-10-31T05:21:04;15.07;;;11.13;;
1258;SDS011;619;51.472;6.628;2022-10-31T05:23:32;17.47;;;11.00;;
1258;SDS011;619;51.472;6.628;2022-10-31T05:25:58;11.13;;;10.03;;
1258;SDS011;619;51.472;6.628;2022-10-31T05:28:26;15.40;;;11.10;;
1258;SDS011;619;51.472;6.628;2022-10-31T05:30:51;11.50;;;10.10;;
1258;SDS011;619;51.472;6.628;2022-10-31T05:33:17;14.27;;;10.40;;
1258;SDS011;619;51.472;6.628;2022-10-31T05:35:42;11.53;;;9.93;;
1258;SDS011;619;51.472;6.628;2022-10-31T05:38:08;15.53;;;10.17;;
1258;SDS011;619;51.472;6.628;2022-10-31T05:40:34;16.87;;;9.67;;
1258;SDS011;619;51.472;6.628;2022-10-31T05:42:59;11.83;;;9.57;;
1258;SDS011;619;51.472;6.628;2022-10-31T05:45:25;16.00;;;9.67;;
1258;SDS011;619;51.472;6.628;2022-10-31T05:47:51;10.80;;;9.70;;
1258;SDS011;619;51.472;6.628;2022-10-31T05:50:17;10.40;;;9.40;;
1258;SDS011;619;51.472;6.628;2022-10-31T05:52:46;11.70;;;9.40;;
1258;SDS011;619;51.472;6.628;2022-10-31T05:55:11;11.27;;;10.07;;
1258;SDS011;619;51.472;6.628;2022-10-31T05:57:42;10.70;;;9.13;;
1258;SDS011;619;51.472;6.628;2022-10-31T06:00:08;10.70;;;9.63;;
1258;SDS011;619;51.472;6.628;2022-10-31T06:02:34;11.40;;;10.40;;
1258;SDS011;619;51.472;6.628;2022-10-31T06:05:00;12.33;;;9.87;;
1258;SDS011;619;51.472;6.628;2022-10-31T06:07:26;14.47;;;10.20;;
1258;SDS011;619;51.472;6.628;2022-10-31T06:09:52;12.77;;;9.83;;
1258;SDS011;619;51.472;6.628;2022-10-31T06:12:20;14.47;;;11.67;;
1258;SDS011;619;51.472;6.628;2022-10-31T06:14:46;12.93;;;10.27;;
1258;SDS011;619;51.472;6.628;2022-10-31T06:17:11;12.70;;;10.33;;
1258;SDS011;619;51.472;6.628;2022-10-31T06:19:39;15.00;;;9.97;;
1258;SDS011;619;51.472;6.628;2022-10-31T06:22:07;11.47;;;10.33;;
1258;SDS011;619;51.472;6.628;2022-10-31T06:24:33;14.23;;;9.97;;
1258;SDS011;619;51.472;6.628;2022-10-31T06:26:58;17.57;;;9.90;;
1258;SDS011;619;51.472;6.628;2022-10-31T06:29:24;13.50;;;11.43;;
1258;SDS011;619;51.472;6.628;2022-10-31T06:31:52;17.93;;;10.00;;
1258;SDS011;619;51.472;6.628;2022-10-31T06:34:18;17.17;;;11.17;;
1258;SDS011;619;51.472;6.628;2022-10-31T06:36:45;15.70;;;12.17;;
1258;SDS011;619;51.472;6.628;2022-10-31T06:39:16;13.50;;;11.60;;
1258;SDS011;619;51.472;6.628;2022-10-31T06:41:41;10.90;;;9.80;;
1258;SDS011;619;51.472;6.628;2022-10-31T06:44:11;14.63;;;10.60;;
1258;SDS011;619;51.472;6.628;2022-10-31T06:46:37;11.30;;;9.90;;
1258;SDS011;619;51.472;6.628;2022-10-31T06:49:08;12.97;;;11.33;;
1258;SDS011;619;51.472;6.628;2022-10-31T06:51:33;18.00;;;11.70;;
1258;SDS011;619;51.472;6.628;2022-10-31T06:54:01;15.17;;;10.83;;
1258;SDS011;619;51.472;6.628;2022-10-31T06:56:27;11.93;;;10.67;;
1258;SDS011;619;51.472;6.628;2022-10-31T06:58:52;16.03;;;10.90;;
1258;SDS011;619;51.472;6.628;2022-10-31T07:01:20;11.93;;;9.93;;
1258;SDS011;619;51.472;6.628;2022-10-31T07:03:48;10.87;;;9.83;;
1258;SDS011;619;51.472;6.628;2022-10-31T07:06:19;11.70;;;10.57;;
1258;SDS011;619;51.472;6.628;2022-10-31T07:08:44;14.13;;;10.47;;
1258;SDS011;619;51.472;6.628;2022-10-31T07:11:12;13.13;;;9.53;;
1258;SDS011;619;51.472;6.628;2022-10-31T07:13:38;13.83;;;10.20;;
1258;SDS011;619;51.472;6.628;2022-10-31T07:16:06;18.00;;;11.90;;
1258;SDS011;619;51.472;6.628;2022-10-31T07:18:32;12.50;;;11.10;;
1258;SDS011;619;51.472;6.628;2022-10-31T07:20:58;12.53;;;10.50;;
1258;SDS011;619;51.472;6.628;2022-10-31T07:23:24;12.83;;;11.50;;
1258;SDS011;619;51.472;6.628;2022-10-31T07:25:54;12.30;;;10.90;;
1258;SDS011;619;51.472;6.628;2022-10-31T07:28:23;16.77;;;10.67;;
1258;SDS011;619;51.472;6.628;2022-10-31T07:30:53;13.63;;;11.37;;
1258;SDS011;619;51.472;6.628;2022-10-31T07:33:20;16.70;;;10.90;;
1258;SDS011;619;51.472;6.628;2022-10-31T07:35:46;19.57;;;10.80;;
1258;SDS011;619;51.472;6.628;2022-10-31T07:38:12;11.80;;;10.60;;
1258;SDS011;619;51.472;6.628;2022-10-31T07:40:39;16.23;;;11.63;;
1258;SDS011;619;51.472;6.628;2022-10-31T07:43:07;15.60;;;11.27;;
1258;SDS011;619;51.472;6.628;2022-10-31T07:45:35;15.30;;;11.87;;
1258;SDS011;619;51.472;6.628;2022-10-31T07:48:00;13.50;;;11.00;;
1258;SDS011;619;51.472;6.628;2022-10-31T07:50:29;16.30;;;11.33;;
1258;SDS011;619;51.472;6.628;2022-10-31T07:53:09;17.50;;;11.70;;
1258;SDS011;619;51.472;6.628;2022-10-31T07:55:36;18.93;;;12.80;;
1258;SDS011;619;51.472;6.628;2022-10-31T07:58:09;16.33;;;12.77;;
1258;SDS011;619;51.472;6.628;2022-10-31T08:00:42;18.77;;;13.63;;
1258;SDS011;619;51.472;6.628;2022-10-31T08:03:10;15.37;;;11.40;;
1258;SDS011;619;51.472;6.628;2022-10-31T08:05:41;15.97;;;13.37;;
1258;SDS011;619;51.472;6.628;2022-10-31T08:08:07;13.57;;;11.87;;
1258;SDS011;619;51.472;6.628;2022-10-31T08:10:33;12.50;;;11.30;;
1258;SDS011;619;51.472;6.628;2022-10-31T08:13:00;16.57;;;12.87;;
1258;SDS011;619;51.472;6.628;2022-10-31T08:15:38;15.87;;;12.70;;
1258;SDS011;619;51.472;6.628;2022-10-31T08:18:10;13.70;;;11.80;;
1258;SDS011;619;51.472;6.628;2022-10-31T08:20:40;19.90;;;13.97;;
1258;SDS011;619;51.472;6.628;2022-10-31T08:23:06;20.83;;;13.97;;
1258;SDS011;619;51.472;6.628;2022-10-31T08:25:34;21.53;;;15.40;;
1258;SDS011;619;51.472;6.628;2022-10-31T08:28:02;17.47;;;13.43;;
1258;SDS011;619;51.472;6.628;2022-10-31T08:30:32;17.67;;;14.30;;
1258;SDS011;619;51.472;6.628;2022-10-31T08:33:11;18.73;;;13.93;;
1258;SDS011;619;51.472;6.628;2022-10-31T08:35:39;24.57;;;14.07;;
1258;SDS011;619;51.472;6.628;2022-10-31T08:38:05;17.47;;;14.40;;
1258;SDS011;619;51.472;6.628;2022-10-31T08:40:33;19.27;;;14.93;;
1258;SDS011;619;51.472;6.628;2022-10-31T08:43:21;21.50;;;14.50;;
1258;SDS011;619;51.472;6.628;2022-10-31T08:45:51;15.63;;;14.00;;
1258;SDS011;619;51.472;6.628;2022-10-31T08:48:20;20.90;;;15.37;;
1258;SDS011;619;51.472;6.628;2022-10-31T08:50:46;23.97;;;15.13;;
1258;SDS011;619;51.472;6.628;2022-10-31T08:53:15;22.40;;;16.13;;
1258;SDS011;619;51.472;6.628;2022-10-31T08:55:44;19.20;;;14.40;;
1258;SDS011;619;51.472;6.628;2022-10-31T08:58:12;20.43;;;16.27;;
1258;SDS011;619;51.472;6.628;2022-10-31T09:00:43;22.87;;;15.60;;
1258;SDS011;619;51.472;6.628;2022-10-31T09:03:12;21.63;;;15.27;;
1258;SDS011;619;51.472;6.628;2022-10-31T09:05:44;20.27;;;15.50;;
1258;SDS011;619;51.472;6.628;2022-10-31T09:08:11;19.53;;;15.53;;
1258;SDS011;619;51.472;6.628;2022-10-31T09:10:37;21.67;;;15.13;;
1258;SDS011;619;51.472;6.628;2022-10-31T09:13:10;23.53;;;16.37;;
1258;SDS011;619;51.472;6.628;2022-10-31T09:15:41;21.10;;;15.60;;
1258;SDS011;619;51.472;6.628;2022-10-31T09:18:08;20.93;;;16.87;;
1258;SDS011;619;51.472;6.628;2022-10-31T09:20:35;27.70;;;15.27;;
1258;SDS011;619;51.472;6.628;2022-10-31T09:23:05;22.10;;;16.70;;
1258;SDS011;619;51.472;6.628;2022-10-31T09:25:35;26.33;;;17.20;;
1258;SDS011;619;51.472;6.628;2022-10-31T09:28:06;26.83;;;16.50;;
1258;SDS011;619;51.472;6.628;2022-10-31T09:30:34;17.00;;;15.23;;
1258;SDS011;619;51.472;6.628;2022-10-31T09:33:03;22.93;;;16.77;;
1258;SDS011;619;51.472;6.628;2022-10-31T09:35:39;23.47;;;18.00;;
1258;SDS011;619;51.472;6.628;2022-10-31T09:38:06;18.07;;;15.27;;
1258;SDS011;619;51.472;6.628;2022-10-31T09:40:43;23.87;;;17.77;;
1258;SDS011;619;51.472;6.628;2022-10-31T09:43:46;25.73;;;17.90;;
1258;SDS011;619;51.472;6.628;2022-10-31T09:51:41;31.70;;;18.87;;
1258;SDS011;619;51.472;6.628;2022-10-31T09:54:17;23.30;;;18.33;;
1258;SDS011;619;51.472;6.628;2022-10-31T09:56:48;24.53;;;17.60;;
1258;SDS011;619;51.472;6.628;2022-10-31T09:59:24;23.00;;;17.67;;
1258;SDS011;619;51.472;6.628;2022-10-31T10:01:58;23.07;;;16.80;;
1258;SDS011;619;51.472;6.628;2022-10-31T10:04:44;30.37;;;19.50;;
1258;SDS011;619;51.472;6.628;2022-10-31T10:07:19;21.73;;;17.43;;
1258;SDS011;619;51.472;6.628;2022-10-31T10:09:46;28.27;;;18.07;;
1258;SDS011;619;51.472;6.628;2022-10-31T10:18:06;27.17;;;17.77;;
1258;SDS011;619;51.472;6.628;2022-10-31T10:26:06;25.83;;;19.57;;
1258;SDS011;619;51.472;6.628;2022-10-31T10:28:41;31.33;;;18.50;;
1258;SDS011;619;51.472;6.628;2022-10-31T10:31:27;23.13;;;18.77;;
1258;SDS011;619;51.472;6.628;2022-10-31T10:36:27;29.33;;;19.23;;
1258;SDS011;619;51.472;6.628;2022-10-31T10:39:04;33.00;;;20.67;;
1258;SDS011;619;51.472;6.628;2022-10-31T10:41:44;31.37;;;21.40;;
1258;SDS011;619;51.472;6.628;2022-10-31T10:44:33;30.07;;;19.63;;
1258;SDS011;619;51.472;6.628;2022-10-31T10:47:24;29.37;;;18.33;;
1258;SDS011;619;51.472;6.628;2022-10-31T10:50:18;24.40;;;17.97;;
1258;SDS011;619;51.472;6.628;2022-10-31T10:53:43;22.60;;;18.20;;
1258;SDS011;619;51.472;6.628;2022-10-31T10:58:25;22.87;;;18.47;;
1258;SDS011;619;51.472;6.628;2022-10-31T11:00:53;28.10;;;19.67;;
1258;SDS011;619;51.472;6.628;2022-10-31T11:03:22;29.03;;;20.30;;
1258;SDS011;619;51.472;6.628;2022-10-31T11:08:30;26.93;;;21.10;;
1258;SDS011;619;51.472;6.628;2022-10-31T11:13:30;25.60;;;21.27;;
1258;SDS011;619;51.472;6.628;2022-10-31T11:18:30;30.10;;;23.33;;
1258;SDS011;619;51.472;6.628;2022-10-31T11:21:00;26.53;;;21.80;;
1258;SDS011;619;51.472;6.628;2022-10-31T11:23:29;26.40;;;23.10;;
1258;SDS011;619;51.472;6.628;2022-10-31T11:28:22;24.47;;;21.00;;
1258;SDS011;619;51.472;6.628;2022-10-31T11:30:49;25.10;;;22.40;;
1258;SDS011;619;51.472;6.628;2022-10-31T11:35:54;30.17;;;22.87;;
1258;SDS011;619;51.472;6.628;2022-10-31T11:38:24;27.17;;;23.47;;
1258;SDS011;619;51.472;6.628;2022-10-31T11:43:56;37.77;;;22.57;;
1258;SDS011;619;51.472;6.628;2022-10-31T11:48:54;32.70;;;23.30;;
1258;SDS011;619;51.472;6.628;2022-10-31T11:51:25;34.13;;;22.60;;
1258;SDS011;619;51.472;6.628;2022-10-31T11:53:55;28.37;;;21.47;;
1258;SDS011;619;51.472;6.628;2022-10-31T11:56:23;26.80;;;21.77;;
1258;SDS011;619;51.472;6.628;2022-10-31T11:58:55;25.53;;;21.53;;
1258;SDS011;619;51.472;6.628;2022-10-31T12:01:24;30.67;;;22.80;;
1258;SDS011;619;51.472;6.628;2022-10-31T12:03:54;27.33;;;20.90;;
1258;SDS011;619;51.472;6.628;2022-10-31T12:06:28;26.47;;;21.03;;
1258;SDS011;619;51.472;6.628;2022-10-31T12:09:22;25.57;;;21.77;;
1258;SDS011;619;51.472;6.628;2022-10-31T12:20:16;20.87;;;17.10;;
1258;SDS011;619;51.472;6.628;2022-10-31T12:23:02;29.13;;;19.10;;
1258;SDS011;619;51.472;6.628;2022-10-31T12:33:56;22.87;;;18.47;;
1258;SDS011;619;51.472;6.628;2022-10-31T12:44:30;22.53;;;17.80;;
1258;SDS011;619;51.472;6.628;2022-10-31T12:55:48;24.70;;;12.73;;
1258;SDS011;619;51.472;6.628;2022-10-31T12:58:22;19.23;;;12.23;;
1258;SDS011;619;51.472;6.628;2022-10-31T13:03:51;12.70;;;10.40;;
1258;SDS011;619;51.472;6.628;2022-10-31T13:06:24;17.00;;;11.33;;
1258;SDS011;619;51.472;6.628;2022-10-31T13:08:58;15.37;;;10.60;;
1258;SDS011;619;51.472;6.628;2022-10-31T13:16:37;18.20;;;12.27;;
1258;SDS011;619;51.472;6.628;2022-10-31T13:21:40;12.90;;;9.77;;
1258;SDS011;619;51.472;6.628;2022-10-31T13:24:36;14.40;;;10.83;;
1258;SDS011;619;51.472;6.628;2022-10-31T13:27:28;13.67;;;8.57;;
1258;SDS011;619;51.472;6.628;2022-10-31T13:30:05;13.43;;;9.10;;
1258;SDS011;619;51.472;6.628;2022-10-31T13:32:41;9.70;;;7.90;;
1258;SDS011;619;51.472;6.628;2022-10-31T13:35:38;15.40;;;8.83;;
1258;SDS011;619;51.472;6.628;2022-10-31T13:38:33;9.17;;;7.70;;
1258;SDS011;619;51.472;6.628;2022-10-31T13:41:22;13.20;;;7.73;;
1258;SDS011;619;51.472;6.628;2022-10-31T13:46:41;10.30;;;6.97;;
1258;SDS011;619;51.472;6.628;2022-10-31T13:54:38;16.10;;;9.70;;
1258;SDS011;619;51.472;6.628;2022-10-31T13:57:34;16.10;;;8.80;;
1258;SDS011;619;51.472;6.628;2022-10-31T14:02:46;13.27;;;7.63;;
1258;SDS011;619;51.472;6.628;2022-10-31T14:05:20;16.57;;;9.03;;
1258;SDS011;619;51.472;6.628;2022-10-31T14:07:58;14.97;;;8.70;;
1258;SDS011;619;51.472;6.628;2022-10-31T14:10:35;14.00;;;7.67;;
1258;SDS011;619;51.472;6.628;2022-10-31T14:13:07;10.53;;;6.87;;
1258;SDS011;619;51.472;6.628;2022-10-31T14:15:42;11.23;;;6.57;;
1258;SDS011;619;51.472;6.628;2022-10-31T14:18:25;11.10;;;5.57;;
1258;SDS011;619;51.472;6.628;2022-10-31T14:20:57;15.67;;;6.40;;
1258;SDS011;619;51.472;6.628;2022-10-31T14:23:36;14.60;;;5.83;;
1258;SDS011;619;51.472;6.628;2022-10-31T14:28:57;8.00;;;5.20;;
1258;SDS011;619;51.472;6.628;2022-10-31T14:34:17;10.50;;;5.67;;
1258;SDS011;619;51.472;6.628;2022-10-31T14:45:34;10.53;;;5.53;;
1258;SDS011;619;51.472;6.628;2022-10-31T14:50:57;12.97;;;5.43;;
1258;SDS011;619;51.472;6.628;2022-10-31T14:53:28;9.63;;;4.87;;
1258;SDS011;619;51.472;6.628;2022-10-31T14:56:09;9.63;;;5.37;;
1258;SDS011;619;51.472;6.628;2022-10-31T14:58:40;8.63;;;4.83;;
1258;SDS011;619;51.472;6.628;2022-10-31T15:01:17;9.50;;;5.97;;
1258;SDS011;619;51.472;6.628;2022-10-31T15:04:00;14.03;;;5.93;;
1258;SDS011;619;51.472;6.628;2022-10-31T15:06:31;12.03;;;5.43;;
1258;SDS011;619;51.472;6.628;2022-10-31T15:09:05;7.57;;;5.50;;
1258;SDS011;619;51.472;6.628;2022-10-31T15:11:45;10.73;;;5.60;;
1258;SDS011;619;51.472;6.628;2022-10-31T15:14:20;10.80;;;5.30;;
1258;SDS011;619;51.472;6.628;2022-10-31T15:16:48;12.13;;;5.40;;
1258;SDS011;619;51.472;6.628;2022-10-31T15:19:15;8.70;;;5.33;;
1258;SDS011;619;51.472;6.628;2022-10-31T15:21:46;11.20;;;6.30;;
1258;SDS011;619;51.472;6.628;2022-10-31T15:24:15;12.17;;;6.90;;
1258;SDS011;619;51.472;6.628;2022-10-31T15:26:44;7.43;;;5.17;;
1258;SDS011;619;51.472;6.628;2022-10-31T15:29:12;11.80;;;5.83;;
1258;SDS011;619;51.472;6.628;2022-10-31T15:34:43;9.33;;;5.33;;
1258;SDS011;619;51.472;6.628;2022-10-31T15:37:12;7.37;;;5.60;;
1258;SDS011;619;51.472;6.628;2022-10-31T15:39:43;8.00;;;5.13;;
1258;SDS011;619;51.472;6.628;2022-10-31T15:42:18;13.50;;;6.10;;
1258;SDS011;619;51.472;6.628;2022-10-31T15:45:15;9.87;;;5.73;;
1258;SDS011;619;51.472;6.628;2022-10-31T15:47:45;6.80;;;5.60;;
1258;SDS011;619;51.472;6.628;2022-10-31T15:50:18;10.33;;;5.57;;
1258;SDS011;619;51.472;6.628;2022-10-31T15:52:47;11.07;;;5.60;;
1258;SDS011;619;51.472;6.628;2022-10-31T15:55:20;12.70;;;6.03;;
1258;SDS011;619;51.472;6.628;2022-10-31T15:57:48;8.00;;;5.50;;
1258;SDS011;619;51.472;6.628;2022-10-31T16:02:52;12.83;;;5.90;;
1258;SDS011;619;51.472;6.628;2022-10-31T16:05:50;10.53;;;5.63;;
1258;SDS011;619;51.472;6.628;2022-10-31T16:13:32;12.67;;;5.80;;
1258;SDS011;619;51.472;6.628;2022-10-31T16:16:00;12.83;;;5.07;;
1258;SDS011;619;51.472;6.628;2022-10-31T16:18:36;9.27;;;5.30;;
1258;SDS011;619;51.472;6.628;2022-10-31T16:21:03;11.77;;;6.17;;
1258;SDS011;619;51.472;6.628;2022-10-31T16:23:31;10.00;;;5.90;;
1258;SDS011;619;51.472;6.628;2022-10-31T16:25:56;9.97;;;6.23;;
1258;SDS011;619;51.472;6.628;2022-10-31T16:28:24;9.93;;;5.43;;
1258;SDS011;619;51.472;6.628;2022-10-31T16:30:54;12.97;;;5.60;;
